sensor_id;sensor_type;location;lat;lon;timestamp;pressure;altitude;pressure_sealevel;temperature;humidity
39455;BME280;25155;41.890;23.446;2023-03-16T00:00:15;90746.19;;;3.23;58.77
39455;BME280;25155;41.890;23.446;2023-03-16T00:02:43;90745.69;;;3.26;58.69
39455;BME280;25155;41.890;23.446;2023-03-16T00:05:14;90743.84;;;3.26;58.69
39455;BME280;25155;41.890;23.446;2023-03-16T00:07:41;90744.38;;;3.23;58.62
39455;BME280;25155;41.890;23.446;2023-03-16T00:10:10;90742.56;;;3.19;58.86
39455;BME280;25155;41.890;23.446;2023-03-16T00:12:38;90742.84;;;3.12;59.20
39455;BME280;25155;41.890;23.446;2023-03-16T00:15:08;90748.31;;;3.10;59.33
39455;BME280;25155;41.890;23.446;2023-03-16T00:17:36;90752.44;;;3.12;58.92
39455;BME280;25155;41.890;23.446;2023-03-16T00:20:04;90746.50;;;3.11;58.97
39455;BME280;25155;41.890;23.446;2023-03-16T00:22:34;90751.44;;;3.07;59.13
39455;BME280;25155;41.890;23.446;2023-03-16T00:25:01;90753.50;;;3.05;59.36
39455;BME280;25155;41.890;23.446;2023-03-16T00:27:29;90757.13;;;3.04;59.01
39455;BME280;25155;41.890;23.446;2023-03-16T00:29:56;90755.06;;;3.01;59.68
39455;BME280;25155;41.890;23.446;2023-03-16T00:32:25;90759.19;;;3.02;59.43
39455;BME280;25155;41.890;23.446;2023-03-16T00:34:53;90753.28;;;2.97;60.63
39455;BME280;25155;41.890;23.446;2023-03-16T00:37:21;90757.66;;;3.01;60.34
39455;BME280;25155;41.890;23.446;2023-03-16T00:39:52;90759.50;;;3.01;60.25
39455;BME280;25155;41.890;23.446;2023-03-16T00:42:24;90763.34;;;3.03;60.22
39455;BME280;25155;41.890;23.446;2023-03-16T00:44:54;90770.84;;;3.10;59.85
39455;BME280;25155;41.890;23.446;2023-03-16T00:47:23;90766.94;;;3.13;60.12
39455;BME280;25155;41.890;23.446;2023-03-16T00:49:51;90764.59;;;3.16;59.79
39455;BME280;25155;41.890;23.446;2023-03-16T00:52:19;90760.69;;;3.19;59.55
39455;BME280;25155;41.890;23.446;2023-03-16T00:54:49;90773.66;;;3.19;59.41
39455;BME280;25155;41.890;23.446;2023-03-16T00:57:20;90763.28;;;3.19;59.74
39455;BME280;25155;41.890;23.446;2023-03-16T00:59:49;90771.88;;;3.14;59.55
39455;BME280;25155;41.890;23.446;2023-03-16T01:02:17;90772.66;;;3.04;59.93
39455;BME280;25155;41.890;23.446;2023-03-16T01:04:48;90774.47;;;2.94;59.96
39455;BME280;25155;41.890;23.446;2023-03-16T01:07:16;90773.72;;;2.88;60.50
39455;BME280;25155;41.890;23.446;2023-03-16T01:09:44;90769.06;;;2.85;60.48
39455;BME280;25155;41.890;23.446;2023-03-16T01:12:12;90771.13;;;2.83;60.59
39455;BME280;25155;41.890;23.446;2023-03-16T01:14:42;90778.63;;;2.74;60.70
39455;BME280;25155;41.890;23.446;2023-03-16T01:17:11;90774.78;;;2.71;61.58
39455;BME280;25155;41.890;23.446;2023-03-16T01:19:38;90777.63;;;2.70;61.41
39455;BME280;25155;41.890;23.446;2023-03-16T01:22:07;90763.66;;;2.71;61.42
39455;BME280;25155;41.890;23.446;2023-03-16T01:24:35;90762.34;;;2.73;60.97
39455;BME280;25155;41.890;23.446;2023-03-16T01:27:03;90760.81;;;2.78;61.38
39455;BME280;25155;41.890;23.446;2023-03-16T01:29:31;90765.16;;;2.82;61.09
39455;BME280;25155;41.890;23.446;2023-03-16T01:32:00;90765.44;;;2.86;61.02
39455;BME280;25155;41.890;23.446;2023-03-16T01:34:30;90768.03;;;2.86;60.81
39455;BME280;25155;41.890;23.446;2023-03-16T01:36:57;90766.97;;;2.87;60.66
39455;BME280;25155;41.890;23.446;2023-03-16T01:39:24;90766.19;;;2.91;60.43
39455;BME280;25155;41.890;23.446;2023-03-16T01:41:52;90769.03;;;2.95;60.88
39455;BME280;25155;41.890;23.446;2023-03-16T01:44:21;90763.84;;;2.95;60.66
39455;BME280;25155;41.890;23.446;2023-03-16T01:46:55;90764.63;;;2.96;60.78
39455;BME280;25155;41.890;23.446;2023-03-16T01:49:27;90766.22;;;2.97;60.51
39455;BME280;25155;41.890;23.446;2023-03-16T01:51:59;90758.69;;;3.00;60.48
39455;BME280;25155;41.890;23.446;2023-03-16T01:54:31;90760.25;;;3.01;60.74
39455;BME280;25155;41.890;23.446;2023-03-16T01:57:04;90765.16;;;3.03;60.50
39455;BME280;25155;41.890;23.446;2023-03-16T01:59:37;90765.41;;;3.06;60.07
39455;BME280;25155;41.890;23.446;2023-03-16T02:02:07;90764.09;;;3.09;60.51
39455;BME280;25155;41.890;23.446;2023-03-16T02:04:42;90765.41;;;3.12;60.09
39455;BME280;25155;41.890;23.446;2023-03-16T02:07:12;90757.88;;;3.15;60.19
39455;BME280;25155;41.890;23.446;2023-03-16T02:09:43;90765.38;;;3.17;60.34
39455;BME280;25155;41.890;23.446;2023-03-16T02:12:13;90754.75;;;3.18;59.97
39455;BME280;25155;41.890;23.446;2023-03-16T02:14:44;90762.25;;;3.20;59.96
39455;BME280;25155;41.890;23.446;2023-03-16T02:17:12;90759.16;;;3.23;60.44
39455;BME280;25155;41.890;23.446;2023-03-16T02:19:48;90763.28;;;3.19;60.07
39455;BME280;25155;41.890;23.446;2023-03-16T02:22:19;90769.53;;;3.18;59.91
39455;BME280;25155;41.890;23.446;2023-03-16T02:24:50;90774.97;;;3.16;60.02
39455;BME280;25155;41.890;23.446;2023-03-16T02:27:24;90775.22;;;3.15;60.00
39455;BME280;25155;41.890;23.446;2023-03-16T02:30:05;90779.91;;;3.13;60.20
39455;BME280;25155;41.890;23.446;2023-03-16T02:32:34;90771.59;;;3.10;60.13
39455;BME280;25155;41.890;23.446;2023-03-16T02:35:03;90784.56;;;3.05;60.12
39455;BME280;25155;41.890;23.446;2023-03-16T02:37:32;90787.69;;;3.07;59.97
39455;BME280;25155;41.890;23.446;2023-03-16T02:40:00;90782.50;;;3.07;60.51
39455;BME280;25155;41.890;23.446;2023-03-16T02:42:30;90783.03;;;3.04;60.23
39455;BME280;25155;41.890;23.446;2023-03-16T02:44:59;90784.06;;;2.98;60.58
39455;BME280;25155;41.890;23.446;2023-03-16T02:47:33;90786.13;;;2.91;60.22
39455;BME280;25155;41.890;23.446;2023-03-16T02:50:02;90786.13;;;2.91;60.52
39455;BME280;25155;41.890;23.446;2023-03-16T02:52:32;90781.97;;;2.90;60.20
39455;BME280;25155;41.890;23.446;2023-03-16T02:55:00;90790.78;;;2.89;60.51
39455;BME280;25155;41.890;23.446;2023-03-16T02:57:27;90789.25;;;2.88;60.80
39455;BME280;25155;41.890;23.446;2023-03-16T02:59:56;90793.38;;;2.84;60.60
39455;BME280;25155;41.890;23.446;2023-03-16T03:02:24;90794.44;;;2.78;60.60
39455;BME280;25155;41.890;23.446;2023-03-16T03:04:52;90795.47;;;2.71;60.78
39455;BME280;25155;41.890;23.446;2023-03-16T03:07:20;90796.50;;;2.65;61.01
39455;BME280;25155;41.890;23.446;2023-03-16T03:09:56;90786.41;;;2.59;61.56
39455;BME280;25155;41.890;23.446;2023-03-16T03:12:24;90791.34;;;2.55;62.24
39455;BME280;25155;41.890;23.446;2023-03-16T03:14:51;90790.81;;;2.43;62.02
39455;BME280;25155;41.890;23.446;2023-03-16T03:17:19;90799.63;;;2.36;62.13
39455;BME280;25155;41.890;23.446;2023-03-16T03:19:46;90800.91;;;2.34;61.95
39455;BME280;25155;41.890;23.446;2023-03-16T03:22:15;90805.31;;;2.33;62.11
39455;BME280;25155;41.890;23.446;2023-03-16T03:24:43;90807.91;;;2.39;62.21
39455;BME280;25155;41.890;23.446;2023-03-16T03:27:11;90816.97;;;2.41;61.89
39455;BME280;25155;41.890;23.446;2023-03-16T03:29:38;90814.09;;;2.43;61.97
39455;BME280;25155;41.890;23.446;2023-03-16T03:32:06;90807.91;;;2.39;61.95
39455;BME280;25155;41.890;23.446;2023-03-16T03:34:34;90811.00;;;2.41;61.73
39455;BME280;25155;41.890;23.446;2023-03-16T03:37:02;90828.06;;;2.47;61.61
39455;BME280;25155;41.890;23.446;2023-03-16T03:39:30;90832.47;;;2.46;61.75
39455;BME280;25155;41.890;23.446;2023-03-16T03:41:58;90829.09;;;2.46;61.81
39455;BME280;25155;41.890;23.446;2023-03-16T03:44:28;90830.41;;;2.43;61.87
39455;BME280;25155;41.890;23.446;2023-03-16T03:46:59;90836.09;;;2.40;61.99
39455;BME280;25155;41.890;23.446;2023-03-16T03:49:26;90841.50;;;2.39;62.05
39455;BME280;25155;41.890;23.446;2023-03-16T03:51:54;90844.59;;;2.30;63.23
39455;BME280;25155;41.890;23.446;2023-03-16T03:54:25;90852.88;;;2.22;63.66
39455;BME280;25155;41.890;23.446;2023-03-16T03:56:54;90846.66;;;2.23;63.53
39455;BME280;25155;41.890;23.446;2023-03-16T03:59:22;90853.94;;;2.31;63.32
39455;BME280;25155;41.890;23.446;2023-03-16T04:01:51;90855.47;;;2.32;62.90
39455;BME280;25155;41.890;23.446;2023-03-16T04:04:19;90850.03;;;2.39;63.08
39455;BME280;25155;41.890;23.446;2023-03-16T04:06:46;90855.47;;;2.43;63.10
39455;BME280;25155;41.890;23.446;2023-03-16T04:09:13;90861.19;;;2.45;62.81
39455;BME280;25155;41.890;23.446;2023-03-16T04:11:41;90870.22;;;2.42;62.43
39455;BME280;25155;41.890;23.446;2023-03-16T04:14:09;90874.63;;;2.42;62.39
39455;BME280;25155;41.890;23.446;2023-03-16T04:16:36;90872.78;;;2.42;62.57
39455;BME280;25155;41.890;23.446;2023-03-16T04:19:04;90873.56;;;2.43;62.78
39455;BME280;25155;41.890;23.446;2023-03-16T04:21:31;90875.38;;;2.42;62.17
39455;BME280;25155;41.890;23.446;2023-03-16T04:23:59;90873.84;;;2.41;62.37
39455;BME280;25155;41.890;23.446;2023-03-16T04:26:29;90888.06;;;2.44;62.40
39455;BME280;25155;41.890;23.446;2023-03-16T04:28:56;90880.81;;;2.41;63.32
39455;BME280;25155;41.890;23.446;2023-03-16T04:31:25;90883.13;;;2.37;63.00
39455;BME280;25155;41.890;23.446;2023-03-16T04:33:52;90888.06;;;2.39;62.88
39455;BME280;25155;41.890;23.446;2023-03-16T04:36:20;90883.91;;;2.38;62.64
39455;BME280;25155;41.890;23.446;2023-03-16T04:38:50;90884.69;;;2.38;62.52
39455;BME280;25155;41.890;23.446;2023-03-16T04:41:18;90876.66;;;2.34;62.04
39455;BME280;25155;41.890;23.446;2023-03-16T04:43:45;90885.47;;;2.39;61.94
39455;BME280;25155;41.890;23.446;2023-03-16T04:46:13;90888.31;;;2.37;61.96
39455;BME280;25155;41.890;23.446;2023-03-16T04:48:42;90881.56;;;2.31;61.72
39455;BME280;25155;41.890;23.446;2023-03-16T04:51:09;90891.41;;;2.34;61.71
39455;BME280;25155;41.890;23.446;2023-03-16T04:53:37;90899.94;;;2.34;61.31
39455;BME280;25155;41.890;23.446;2023-03-16T04:56:05;90900.72;;;2.35;61.64
39455;BME280;25155;41.890;23.446;2023-03-16T04:58:32;90907.69;;;2.34;61.19
39455;BME280;25155;41.890;23.446;2023-03-16T05:01:00;90905.38;;;2.33;61.07
39455;BME280;25155;41.890;23.446;2023-03-16T05:03:27;90913.91;;;2.28;61.30
39455;BME280;25155;41.890;23.446;2023-03-16T05:05:55;90913.34;;;2.21;61.13
39455;BME280;25155;41.890;23.446;2023-03-16T05:08:22;90924.22;;;2.18;61.18
39455;BME280;25155;41.890;23.446;2023-03-16T05:10:50;90926.25;;;2.11;61.28
39455;BME280;25155;41.890;23.446;2023-03-16T05:13:22;90927.28;;;2.10;61.66
39455;BME280;25155;41.890;23.446;2023-03-16T05:15:49;90938.13;;;2.02;61.04
39455;BME280;25155;41.890;23.446;2023-03-16T05:18:18;90942.44;;;1.91;60.56
39455;BME280;25155;41.890;23.446;2023-03-16T05:20:49;90942.69;;;1.84;60.45
39455;BME280;25155;41.890;23.446;2023-03-16T05:23:18;90941.66;;;1.80;60.74
39455;BME280;25155;41.890;23.446;2023-03-16T05:25:45;90946.25;;;1.78;60.51
39455;BME280;25155;41.890;23.446;2023-03-16T05:28:13;90942.38;;;1.70;60.36
39455;BME280;25155;41.890;23.446;2023-03-16T05:30:41;90948.81;;;1.68;60.63
39455;BME280;25155;41.890;23.446;2023-03-16T05:33:09;90961.22;;;1.71;60.63
39455;BME280;25155;41.890;23.446;2023-03-16T05:35:36;90956.56;;;1.73;60.76
39455;BME280;25155;41.890;23.446;2023-03-16T05:38:04;90944.41;;;1.68;60.74
39455;BME280;25155;41.890;23.446;2023-03-16T05:40:32;90958.63;;;1.71;60.53
39455;BME280;25155;41.890;23.446;2023-03-16T05:43:00;90943.63;;;1.68;60.33
39455;BME280;25155;41.890;23.446;2023-03-16T05:45:27;90955.31;;;1.75;60.57
39455;BME280;25155;41.890;23.446;2023-03-16T05:47:55;90961.75;;;1.78;60.71
39455;BME280;25155;41.890;23.446;2023-03-16T05:50:22;90959.72;;;1.80;60.34
39455;BME280;25155;41.890;23.446;2023-03-16T05:52:50;90963.81;;;1.76;60.21
39455;BME280;25155;41.890;23.446;2023-03-16T05:55:17;90962.00;;;1.76;60.31
39455;BME280;25155;41.890;23.446;2023-03-16T05:57:46;90971.53;;;1.66;59.71
39455;BME280;25155;41.890;23.446;2023-03-16T06:00:14;90968.66;;;1.62;59.96
39455;BME280;25155;41.890;23.446;2023-03-16T06:02:45;90970.69;;;1.60;60.02
39455;BME280;25155;41.890;23.446;2023-03-16T06:05:14;90969.44;;;1.62;59.91
39455;BME280;25155;41.890;23.446;2023-03-16T06:07:42;90969.97;;;1.70;59.33
39455;BME280;25155;41.890;23.446;2023-03-16T06:10:11;90969.91;;;1.54;59.09
39455;BME280;25155;41.890;23.446;2023-03-16T06:12:38;90981.81;;;1.55;59.41
39455;BME280;25155;41.890;23.446;2023-03-16T06:15:09;90981.00;;;1.55;59.50
39455;BME280;25155;41.890;23.446;2023-03-16T06:17:37;90978.19;;;1.56;59.27
39455;BME280;25155;41.890;23.446;2023-03-16T06:20:06;90975.28;;;1.48;58.98
39455;BME280;25155;41.890;23.446;2023-03-16T06:22:36;90985.66;;;1.53;59.17
39455;BME280;25155;41.890;23.446;2023-03-16T06:25:04;90984.84;;;1.47;59.12
39455;BME280;25155;41.890;23.446;2023-03-16T06:27:32;90991.25;;;1.39;59.09
39455;BME280;25155;41.890;23.446;2023-03-16T06:29:59;90991.22;;;1.34;58.86
39455;BME280;25155;41.890;23.446;2023-03-16T06:32:27;90988.38;;;1.36;58.84
39455;BME280;25155;41.890;23.446;2023-03-16T06:34:54;90997.97;;;1.40;59.21
39455;BME280;25155;41.890;23.446;2023-03-16T06:37:24;91001.56;;;1.39;59.35
39455;BME280;25155;41.890;23.446;2023-03-16T06:39:51;91003.91;;;1.41;59.91
39455;BME280;25155;41.890;23.446;2023-03-16T06:42:18;91000.09;;;1.49;61.14
39455;BME280;25155;41.890;23.446;2023-03-16T06:44:45;91011.69;;;1.46;61.10
39455;BME280;25155;41.890;23.446;2023-03-16T06:47:13;91003.66;;;1.42;60.27
39455;BME280;25155;41.890;23.446;2023-03-16T06:49:42;91016.81;;;1.41;60.53
39455;BME280;25155;41.890;23.446;2023-03-16T06:52:12;91012.69;;;1.45;59.92
39455;BME280;25155;41.890;23.446;2023-03-16T06:54:39;91021.00;;;1.47;59.64
39455;BME280;25155;41.890;23.446;2023-03-16T06:57:07;91025.22;;;1.58;59.10
39455;BME280;25155;41.890;23.446;2023-03-16T06:59:34;91024.63;;;1.51;59.25
39455;BME280;25155;41.890;23.446;2023-03-16T07:02:01;91028.81;;;1.57;59.29
39455;BME280;25155;41.890;23.446;2023-03-16T07:04:31;91029.06;;;1.56;59.47
39455;BME280;25155;41.890;23.446;2023-03-16T07:07:00;91027.28;;;1.61;59.82
39455;BME280;25155;41.890;23.446;2023-03-16T07:09:27;91028.63;;;1.69;59.12
39455;BME280;25155;41.890;23.446;2023-03-16T07:11:54;91034.06;;;1.73;58.95
39455;BME280;25155;41.890;23.446;2023-03-16T07:14:21;91036.16;;;1.76;59.15
39455;BME280;25155;41.890;23.446;2023-03-16T07:16:51;91035.91;;;1.77;59.01
39455;BME280;25155;41.890;23.446;2023-03-16T07:19:18;91037.75;;;1.82;57.99
39455;BME280;25155;41.890;23.446;2023-03-16T07:21:47;91041.09;;;1.83;58.03
39455;BME280;25155;41.890;23.446;2023-03-16T07:24:16;91039.28;;;1.83;58.58
39455;BME280;25155;41.890;23.446;2023-03-16T07:26:43;91040.34;;;1.82;58.19
39455;BME280;25155;41.890;23.446;2023-03-16T07:29:11;91039.84;;;1.85;57.81
39455;BME280;25155;41.890;23.446;2023-03-16T07:31:38;91042.97;;;1.92;58.07
39455;BME280;25155;41.890;23.446;2023-03-16T07:34:05;91043.75;;;1.93;57.92
39455;BME280;25155;41.890;23.446;2023-03-16T07:36:32;91032.09;;;1.85;57.87
39455;BME280;25155;41.890;23.446;2023-03-16T07:38:59;91035.72;;;1.89;58.22
39455;BME280;25155;41.890;23.446;2023-03-16T07:41:28;91042.13;;;1.81;58.00
39455;BME280;25155;41.890;23.446;2023-03-16T07:43:56;91049.34;;;1.79;57.92
39455;BME280;25155;41.890;23.446;2023-03-16T07:46:24;91031.03;;;1.81;58.10
39455;BME280;25155;41.890;23.446;2023-03-16T07:48:51;91048.84;;;1.77;57.99
39455;BME280;25155;41.890;23.446;2023-03-16T07:51:18;91049.31;;;1.74;57.83
39455;BME280;25155;41.890;23.446;2023-03-16T07:53:45;91041.06;;;1.72;57.73
39455;BME280;25155;41.890;23.446;2023-03-16T07:56:13;91053.19;;;1.72;58.06
39455;BME280;25155;41.890;23.446;2023-03-16T07:58:42;91046.47;;;1.71;58.51
39455;BME280;25155;41.890;23.446;2023-03-16T08:01:09;91046.44;;;1.66;57.92
39455;BME280;25155;41.890;23.446;2023-03-16T08:03:37;91049.00;;;1.66;58.22
39455;BME280;25155;41.890;23.446;2023-03-16T08:06:06;91049.22;;;1.59;58.09
39455;BME280;25155;41.890;23.446;2023-03-16T08:08:33;91045.59;;;1.60;58.20
39455;BME280;25155;41.890;23.446;2023-03-16T08:11:01;91048.94;;;1.55;58.57
39455;BME280;25155;41.890;23.446;2023-03-16T08:13:29;91050.09;;;1.75;58.33
39455;BME280;25155;41.890;23.446;2023-03-16T08:15:57;91045.56;;;1.92;58.15
39455;BME280;25155;41.890;23.446;2023-03-16T08:18:26;91047.47;;;2.12;57.82
39455;BME280;25155;41.890;23.446;2023-03-16T08:20:55;91049.16;;;2.39;57.26
39455;BME280;25155;41.890;23.446;2023-03-16T08:23:22;91042.72;;;2.42;56.73
39455;BME280;25155;41.890;23.446;2023-03-16T08:25:51;91056.47;;;2.58;56.13
39455;BME280;25155;41.890;23.446;2023-03-16T08:28:19;91054.19;;;2.71;56.11
39455;BME280;25155;41.890;23.446;2023-03-16T08:30:48;91051.38;;;2.78;54.90
39455;BME280;25155;41.890;23.446;2023-03-16T08:33:17;91049.06;;;2.92;55.41
39455;BME280;25155;41.890;23.446;2023-03-16T08:35:45;91051.19;;;3.00;54.58
39455;BME280;25155;41.890;23.446;2023-03-16T08:38:14;91052.75;;;3.01;54.48
39455;BME280;25155;41.890;23.446;2023-03-16T08:40:42;91063.63;;;3.03;54.08
39455;BME280;25155;41.890;23.446;2023-03-16T08:43:13;91053.53;;;3.07;53.52
39455;BME280;25155;41.890;23.446;2023-03-16T08:45:40;91049.66;;;3.09;53.66
39455;BME280;25155;41.890;23.446;2023-03-16T08:48:09;91058.50;;;3.24;54.70
39455;BME280;25155;41.890;23.446;2023-03-16T08:50:41;91057.19;;;3.47;53.43
39455;BME280;25155;41.890;23.446;2023-03-16T08:53:10;91062.38;;;3.62;53.23
39455;BME280;25155;41.890;23.446;2023-03-16T08:55:38;91060.56;;;3.78;53.49
39455;BME280;25155;41.890;23.446;2023-03-16T08:58:06;91061.34;;;3.89;51.92
39455;BME280;25155;41.890;23.446;2023-03-16T09:00:33;91050.69;;;4.01;53.82
39455;BME280;25155;41.890;23.446;2023-03-16T09:03:01;91053.50;;;4.10;51.63
39455;BME280;25155;41.890;23.446;2023-03-16T09:05:29;91054.81;;;4.12;52.43
39455;BME280;25155;41.890;23.446;2023-03-16T09:07:58;91047.81;;;4.08;51.69
39455;BME280;25155;41.890;23.446;2023-03-16T09:10:26;91051.94;;;4.19;51.35
39455;BME280;25155;41.890;23.446;2023-03-16T09:12:53;91062.56;;;4.28;51.21
39455;BME280;25155;41.890;23.446;2023-03-16T09:15:21;91057.59;;;4.42;51.85
39455;BME280;25155;41.890;23.446;2023-03-16T09:17:48;91052.63;;;4.50;50.47
39455;BME280;25155;41.890;23.446;2023-03-16T09:20:16;91053.38;;;4.56;50.59
39455;BME280;25155;41.890;23.446;2023-03-16T09:22:43;91052.56;;;4.66;50.27
39455;BME280;25155;41.890;23.446;2023-03-16T09:25:13;91064.00;;;4.70;50.38
39455;BME280;25155;41.890;23.446;2023-03-16T09:27:40;91062.44;;;4.64;50.15
39455;BME280;25155;41.890;23.446;2023-03-16T09:30:10;91069.19;;;4.60;50.01
39455;BME280;25155;41.890;23.446;2023-03-16T09:32:37;91060.41;;;4.50;50.10
39455;BME280;25155;41.890;23.446;2023-03-16T09:35:05;91068.72;;;4.52;50.69
39455;BME280;25155;41.890;23.446;2023-03-16T09:37:33;91055.22;;;4.50;49.90
39455;BME280;25155;41.890;23.446;2023-03-16T09:40:01;91053.91;;;4.63;50.01
39455;BME280;25155;41.890;23.446;2023-03-16T09:42:33;91060.88;;;4.68;50.35
39455;BME280;25155;41.890;23.446;2023-03-16T09:45:11;91055.94;;;4.71;50.15
39455;BME280;25155;41.890;23.446;2023-03-16T09:47:40;91061.31;;;4.85;50.18
39455;BME280;25155;41.890;23.446;2023-03-16T09:50:15;91056.66;;;4.82;49.18
39455;BME280;25155;41.890;23.446;2023-03-16T09:52:52;91067.00;;;4.87;49.43
39455;BME280;25155;41.890;23.446;2023-03-16T09:55:25;91069.84;;;4.91;49.29
39455;BME280;25155;41.890;23.446;2023-03-16T09:57:56;91067.53;;;4.89;48.93
39455;BME280;25155;41.890;23.446;2023-03-16T10:00:26;91075.38;;;4.74;48.85
39455;BME280;25155;41.890;23.446;2023-03-16T10:03:04;91073.09;;;4.62;49.27
39455;BME280;25155;41.890;23.446;2023-03-16T10:05:38;91073.88;;;4.63;49.21
39455;BME280;25155;41.890;23.446;2023-03-16T10:08:13;91073.91;;;4.52;49.64
39455;BME280;25155;41.890;23.446;2023-03-16T10:11:08;91072.34;;;4.46;49.52
39455;BME280;25155;41.890;23.446;2023-03-16T10:13:44;91078.59;;;4.45;50.09
39455;BME280;25155;41.890;23.446;2023-03-16T10:16:16;91083.00;;;4.50;50.00
39455;BME280;25155;41.890;23.446;2023-03-16T10:18:45;91070.81;;;4.50;49.75
39455;BME280;25155;41.890;23.446;2023-03-16T10:21:15;91077.47;;;4.72;49.90
39455;BME280;25155;41.890;23.446;2023-03-16T10:23:44;91078.19;;;4.83;50.11
39455;BME280;25155;41.890;23.446;2023-03-16T10:26:15;91071.88;;;5.04;49.93
39455;BME280;25155;41.890;23.446;2023-03-16T10:28:45;91070.78;;;5.16;49.47
39455;BME280;25155;41.890;23.446;2023-03-16T10:31:14;91085.03;;;5.23;48.83
39455;BME280;25155;41.890;23.446;2023-03-16T10:33:42;91075.94;;;5.21;48.88
39455;BME280;25155;41.890;23.446;2023-03-16T10:36:13;91080.13;;;5.17;48.80
39455;BME280;25155;41.890;23.446;2023-03-16T10:38:42;91083.91;;;4.90;48.76
39455;BME280;25155;41.890;23.446;2023-03-16T10:41:20;91076.78;;;5.11;49.29
39455;BME280;25155;41.890;23.446;2023-03-16T10:43:51;91081.13;;;5.21;48.57
39455;BME280;25155;41.890;23.446;2023-03-16T10:46:19;91096.94;;;5.29;49.32
39455;BME280;25155;41.890;23.446;2023-03-16T10:48:53;91085.47;;;5.36;48.27
39455;BME280;25155;41.890;23.446;2023-03-16T10:51:26;91088.63;;;5.27;47.56
39455;BME280;25155;41.890;23.446;2023-03-16T10:54:00;91098.53;;;5.20;47.80
39455;BME280;25155;41.890;23.446;2023-03-16T10:56:33;91081.44;;;5.09;47.85
39455;BME280;25155;41.890;23.446;2023-03-16T10:59:13;91086.72;;;4.93;47.54
39455;BME280;25155;41.890;23.446;2023-03-16T11:01:44;91082.63;;;4.82;48.15
39455;BME280;25155;41.890;23.446;2023-03-16T11:04:14;91084.22;;;4.73;48.86
39455;BME280;25155;41.890;23.446;2023-03-16T11:06:53;91079.03;;;4.68;49.02
39455;BME280;25155;41.890;23.446;2023-03-16T11:09:23;91084.75;;;4.70;48.34
39455;BME280;25155;41.890;23.446;2023-03-16T11:11:53;91084.25;;;4.57;49.00
39455;BME280;25155;41.890;23.446;2023-03-16T11:14:25;91082.22;;;4.49;48.80
39455;BME280;25155;41.890;23.446;2023-03-16T11:16:59;91081.19;;;4.45;48.87
39455;BME280;25155;41.890;23.446;2023-03-16T11:19:30;91078.38;;;4.36;48.85
39455;BME280;25155;41.890;23.446;2023-03-16T11:22:00;91083.81;;;4.25;49.34
39455;BME280;25155;41.890;23.446;2023-03-16T11:24:34;91084.34;;;4.16;49.26
39455;BME280;25155;41.890;23.446;2023-03-16T11:27:13;91083.59;;;4.16;49.33
39455;BME280;25155;41.890;23.446;2023-03-16T11:29:55;91090.59;;;4.00;49.24
39455;BME280;25155;41.890;23.446;2023-03-16T11:32:25;91092.44;;;3.63;49.89
39455;BME280;25155;41.890;23.446;2023-03-16T11:34:53;91083.88;;;3.78;50.21
39455;BME280;25155;41.890;23.446;2023-03-16T11:37:32;91086.22;;;3.75;50.09
39455;BME280;25155;41.890;23.446;2023-03-16T11:40:09;91095.81;;;3.74;50.24
39455;BME280;25155;41.890;23.446;2023-03-16T11:42:50;91088.31;;;3.62;49.73
39455;BME280;25155;41.890;23.446;2023-03-16T11:45:27;91088.56;;;3.56;50.68
39455;BME280;25155;41.890;23.446;2023-03-16T11:48:18;91084.41;;;3.50;50.31
39455;BME280;25155;41.890;23.446;2023-03-16T11:50:58;91091.66;;;3.47;50.40
39455;BME280;25155;41.890;23.446;2023-03-16T11:53:43;91090.59;;;3.38;51.13
39455;BME280;25155;41.890;23.446;2023-03-16T11:56:21;91088.25;;;3.37;50.71
39455;BME280;25155;41.890;23.446;2023-03-16T11:58:59;91089.28;;;3.25;50.83
39455;BME280;25155;41.890;23.446;2023-03-16T12:01:41;91104.03;;;3.15;50.74
39455;BME280;25155;41.890;23.446;2023-03-16T12:07:19;91094.38;;;2.95;50.81
39455;BME280;25155;41.890;23.446;2023-03-16T12:13:01;91112.66;;;2.72;51.60
39455;BME280;25155;41.890;23.446;2023-03-16T12:18:14;91106.94;;;2.65;51.57
39455;BME280;25155;41.890;23.446;2023-03-16T12:20:47;91110.50;;;2.54;51.86
39455;BME280;25155;41.890;23.446;2023-03-16T12:23:19;91109.72;;;2.48;51.95
39455;BME280;25155;41.890;23.446;2023-03-16T12:25:49;91108.41;;;2.51;51.84
39455;BME280;25155;41.890;23.446;2023-03-16T12:28:21;91107.41;;;2.52;51.95
39455;BME280;25155;41.890;23.446;2023-03-16T12:30:56;91115.38;;;2.40;52.60
39455;BME280;25155;41.890;23.446;2023-03-16T12:33:38;91111.47;;;2.38;52.37
39455;BME280;25155;41.890;23.446;2023-03-16T12:36:30;91103.53;;;2.02;52.33
39455;BME280;25155;41.890;23.446;2023-03-16T12:39:04;91118.22;;;2.01;52.08
39455;BME280;25155;41.890;23.446;2023-03-16T12:41:39;91109.19;;;1.98;52.58
39455;BME280;25155;41.890;23.446;2023-03-16T12:44:14;91119.03;;;2.02;52.72
39455;BME280;25155;41.890;23.446;2023-03-16T12:46:51;91124.19;;;2.02;52.88
39455;BME280;25155;41.890;23.446;2023-03-16T12:49:26;91119.06;;;2.07;52.30
39455;BME280;25155;41.890;23.446;2023-03-16T12:51:59;91120.84;;;2.06;52.12
39455;BME280;25155;41.890;23.446;2023-03-16T12:54:27;91133.03;;;2.11;52.72
39455;BME280;25155;41.890;23.446;2023-03-16T12:57:00;91111.31;;;2.07;52.55
39455;BME280;25155;41.890;23.446;2023-03-16T12:59:37;91112.56;;;2.04;52.38
39455;BME280;25155;41.890;23.446;2023-03-16T13:02:13;91119.56;;;2.04;52.45
39455;BME280;25155;41.890;23.446;2023-03-16T13:04:44;91122.56;;;1.90;52.81
39455;BME280;25155;41.890;23.446;2023-03-16T13:07:16;91125.09;;;1.85;53.09
39455;BME280;25155;41.890;23.446;2023-03-16T13:09:51;91130.75;;;1.82;52.62
39455;BME280;25155;41.890;23.446;2023-03-16T13:12:31;91134.31;;;1.76;52.86
39455;BME280;25155;41.890;23.446;2023-03-16T13:15:01;91153.31;;;1.59;53.76
39455;BME280;25155;41.890;23.446;2023-03-16T13:17:31;91136.44;;;1.52;53.49
39455;BME280;25155;41.890;23.446;2023-03-16T13:20:22;91142.84;;;1.44;53.39
39455;BME280;25155;41.890;23.446;2023-03-16T13:23:06;91134.47;;;1.32;53.75